Time;durP1;ratioP1;P1;durP2;ratioP2;P2;SDS_P1;SDS_P2;PMS_P1;PMS_P2;Temp;Humidity;BMP_temperature;BMP_pressure;BME280_temperature;BME280_humidity;BME280_pressure;Samples;Min_cycle;Max_cycle;Signal;HPM_P1;HPM_P2
2023/10/02 00:00:39;;;;;;;15.13;13.63;;;;;;;19.96;70.12;99870.56;5071851;28;20188;-72
2023/10/02 00:03:05;;;;;;;14.37;12.77;;;;;;;19.90;70.06;99865.34;5071669;28;20198;-72
2023/10/02 00:05:41;;;;;;;14.80;13.47;;;;;;;19.94;70.21;99877.25;5070959;28;20298;-72
2023/10/02 00:08:08;;;;;;;15.67;12.20;;;;;;;19.85;70.31;99867.97;5071523;28;20195;-71
2023/10/02 00:10:40;;;;;;;14.67;13.27;;;;;;;19.91;70.24;99872.34;5071584;28;20180;-71
2023/10/02 00:13:06;;;;;;;15.70;14.17;;;;;;;19.88;70.17;99870.97;5071189;28;20192;-72
2023/10/02 00:15:33;;;;;;;14.60;12.33;;;;;;;19.89;70.20;99872.59;5066131;28;20249;-72
2023/10/02 00:17:59;;;;;;;14.80;13.30;;;;;;;19.85;70.22;99868.75;5071408;28;20192;-71
2023/10/02 00:20:26;;;;;;;14.13;12.73;;;;;;;19.83;70.51;99875.47;5083584;28;20701;-71
2023/10/02 00:22:53;;;;;;;16.60;12.87;;;;;;;19.83;70.39;99870.06;5091527;28;20289;-71
2023/10/02 00:25:22;;;;;;;14.83;13.37;;;;;;;19.86;70.39;99872.28;5091453;28;20275;-70
2023/10/02 00:27:51;;;;;;;14.87;12.70;;;;;;;19.87;70.35;99871.22;5091862;28;20282;-70
2023/10/02 00:30:20;;;;;;;15.87;14.20;;;;;;;19.88;70.08;99870.16;5076489;28;20196;-70
2023/10/02 00:32:49;;;;;;;14.50;13.00;;;;;;;19.77;70.46;99871.88;5071317;28;20192;-71
2023/10/02 00:35:16;;;;;;;14.00;12.80;;;;;;;19.86;70.32;99872.28;5071188;28;20569;-71
2023/10/02 00:37:47;;;;;;;16.57;13.07;;;;;;;19.85;70.41;99876.06;5075432;28;20200;-70
2023/10/02 00:40:20;;;;;;;14.33;12.90;;;;;;;19.82;70.23;99869.28;5075275;28;20184;-69
2023/10/02 00:42:49;;;;;;;15.20;13.70;;;;;;;19.83;70.22;99876.28;5075370;28;20274;-70
2023/10/02 00:45:18;;;;;;;15.73;12.97;;;;;;;19.94;69.84;99866.47;5074671;28;20216;-71
2023/10/02 00:47:48;;;;;;;14.83;13.50;;;;;;;19.85;70.11;99868.75;5075498;28;20196;-71
2023/10/02 00:50:20;;;;;;;16.33;13.60;;;;;;;19.80;70.21;99871.38;5075219;28;20257;-70
2023/10/02 00:52:56;;;;;;;14.93;13.43;;;;;;;19.66;70.52;99867.41;5075186;28;20180;-70
2023/10/02 00:55:24;;;;;;;14.03;12.73;;;;;;;19.79;70.31;99874.31;5075443;28;20292;-70
2023/10/02 00:57:53;;;;;;;14.90;13.50;;;;;;;19.81;69.97;99872.22;5075074;28;20283;-71
2023/10/02 01:00:30;;;;;;;14.23;12.87;;;;;;;19.94;69.59;99871.88;5074933;28;20192;-72
2023/10/02 01:02:58;;;;;;;15.73;12.40;;;;;;;19.84;69.80;99874.41;5075261;28;20212;-71
2023/10/02 01:05:31;;;;;;;13.33;12.13;;;;;;;19.72;70.27;99873.66;5074492;28;20247;-71
2023/10/02 01:07:59;;;;;;;15.40;13.80;;;;;;;19.70;70.27;99870.41;5074887;28;20743;-71
2023/10/02 01:10:29;;;;;;;14.40;13.20;;;;;;;19.74;69.95;99866.16;5074512;28;20651;-71
2023/10/02 01:13:01;;;;;;;13.70;12.37;;;;;;;19.66;70.28;99867.41;5074954;28;20234;-70
2023/10/02 01:15:30;;;;;;;14.40;12.93;;;;;;;19.60;70.39;99875.66;5074281;28;20215;-71
2023/10/02 01:18:21;;;;;;;14.40;13.10;;;;;;;19.54;70.59;99871.22;5073870;28;20249;-71
2023/10/02 01:20:53;;;;;;;14.47;13.07;;;;;;;19.53;70.63;99875.00;5089589;28;20241;-71
2023/10/02 01:23:25;;;;;;;14.67;13.17;;;;;;;19.51;70.69;99879.78;5094803;28;20278;-71
2023/10/02 01:25:57;;;;;;;14.13;13.00;;;;;;;19.47;70.96;99875.94;5094828;28;20656;-71
2023/10/02 01:28:29;;;;;;;13.83;12.63;;;;;;;19.52;70.86;99867.97;5095253;28;20187;-72
2023/10/02 01:30:56;;;;;;;14.30;13.10;;;;;;;19.50;70.83;99876.31;5085369;28;20191;-72
2023/10/02 01:33:22;;;;;;;16.03;13.50;;;;;;;19.42;71.12;99881.25;5074162;28;20196;-72
2023/10/02 01:35:50;;;;;;;16.50;13.73;;;;;;;19.42;71.09;99878.56;5074429;28;20206;-73
2023/10/02 01:38:21;;;;;;;14.17;12.67;;;;;;;19.44;70.48;99877.25;5074587;28;20196;-74
2023/10/02 01:40:54;;;;;;;14.87;13.37;;;;;;;19.40;71.05;99862.63;5074107;28;20265;-74
2023/10/02 01:43:24;;;;;;;13.83;12.70;;;;;;;19.44;71.03;99871.88;5074519;28;20276;-73
2023/10/02 01:45:56;;;;;;;13.60;12.40;;;;;;;19.49;70.92;99868.47;5074723;28;20250;-73
2023/10/02 01:48:41;;;;;;;14.17;12.93;;;;;;;19.48;70.79;99869.53;5072901;28;20193;-73
2023/10/02 01:51:25;;;;;;;14.63;13.23;;;;;;;19.38;71.22;99866.63;5074097;28;20207;-73
2023/10/02 01:53:54;;;;;;;14.53;13.23;;;;;;;19.38;71.14;99861.25;5074156;28;20209;-73
2023/10/02 01:56:22;;;;;;;14.33;12.80;;;;;;;19.38;71.27;99863.94;5074258;28;20196;-73
2023/10/02 01:58:51;;;;;;;13.50;12.10;;;;;;;19.34;71.21;99860.09;5073815;28;20208;-73
2023/10/02 02:01:20;;;;;;;15.53;13.93;;;;;;;19.38;70.95;99855.88;5073531;28;20191;-72
2023/10/02 02:03:48;;;;;;;15.13;13.57;;;;;;;19.32;71.27;99863.03;5074037;28;20278;-73
2023/10/02 02:06:20;;;;;;;14.53;13.13;;;;;;;19.40;70.99;99864.53;5073597;28;20315;-72
2023/10/02 02:08:53;;;;;;;15.27;13.20;;;;;;;19.41;71.03;99860.78;5072827;28;20184;-72
2023/10/02 02:11:21;;;;;;;14.97;13.47;;;;;;;19.48;70.76;99861.44;5073414;28;20177;-73
2023/10/02 02:13:50;;;;;;;15.43;13.83;;;;;;;19.49;70.32;99854.97;5073298;28;20678;-73
2023/10/02 02:16:25;;;;;;;15.23;13.87;;;;;;;19.42;71.00;99862.41;5073486;28;20287;-73
2023/10/02 02:18:54;;;;;;;18.60;13.33;;;;;;;19.40;70.92;99859.94;5073278;28;20209;-72
2023/10/02 02:21:24;;;;;;;16.37;13.80;;;;;;;19.38;71.03;99856.69;5093136;28;20179;-72
2023/10/02 02:24:03;;;;;;;14.03;12.50;;;;;;;19.42;70.87;99857.00;5077144;28;20202;-72
2023/10/02 02:26:31;;;;;;;13.83;12.50;;;;;;;19.42;70.75;99857.84;5073424;28;20224;-73
2023/10/02 02:28:59;;;;;;;15.07;13.67;;;;;;;19.45;70.69;99851.16;5073160;28;20222;-73
2023/10/02 02:31:32;;;;;;;14.77;13.47;;;;;;;19.46;70.51;99858.16;5073712;28;20280;-73
2023/10/02 02:34:02;;;;;;;14.73;13.50;;;;;;;19.49;70.31;99854.97;5073205;28;20188;-73
2023/10/02 02:36:34;;;;;;;15.40;13.73;;;;;;;19.44;70.22;99854.91;5072946;28;20195;-73
2023/10/02 02:39:17;;;;;;;14.40;13.00;;;;;;;19.49;70.18;99863.06;5072701;28;20280;-73
2023/10/02 02:41:45;;;;;;;15.00;13.33;;;;;;;19.55;70.04;99862.06;5052430;28;20648;-71
2023/10/02 02:46:59;;;;;;;14.57;13.27;;;;;;;19.43;69.94;99861.34;5052684;28;20212;-74
2023/10/02 02:49:26;;;;;;;14.13;12.73;;;;;;;19.32;69.92;99856.84;5069981;28;20225;-74
2023/10/02 02:51:55;;;;;;;15.37;13.77;;;;;;;19.34;69.92;99849.34;5073127;28;20215;-74
2023/10/02 02:54:28;;;;;;;13.47;12.13;;;;;;;19.42;69.92;99857.00;5072344;28;20192;-74
2023/10/02 02:56:58;;;;;;;14.83;12.13;;;;;;;19.42;69.65;99843.53;5072608;28;20257;-74
2023/10/02 02:59:29;;;;;;;15.67;12.80;;;;;;;19.43;69.29;99847.84;5071777;28;20623;-74
2023/10/02 03:02:09;;;;;;;13.80;12.47;;;;;;;19.31;69.83;99852.50;5072116;28;20211;-74
2023/10/02 03:04:38;;;;;;;13.70;12.40;;;;;;;19.37;69.88;99855.06;5071713;28;20184;-74
2023/10/02 03:07:09;;;;;;;13.37;11.80;;;;;;;19.39;69.77;99854.78;5071846;28;20604;-74
2023/10/02 03:09:36;;;;;;;14.27;12.37;;;;;;;19.41;69.80;99860.78;5071815;28;20631;-71
2023/10/02 03:12:05;;;;;;;13.57;12.20;;;;;;;19.38;69.67;99863.94;5071991;28;20275;-71
2023/10/02 03:14:34;;;;;;;15.70;12.30;;;;;;;19.44;69.55;99866.47;5071355;28;20192;-72
2023/10/02 03:17:22;;;;;;;13.47;11.90;;;;;;;19.45;69.13;99870.00;5071721;28;20290;-71
2023/10/02 03:19:49;;;;;;;13.27;11.13;;;;;;;19.41;69.45;99876.94;5077976;28;20575;-72
2023/10/02 03:22:17;;;;;;;14.67;12.07;;;;;;;19.25;69.42;99861.56;5092080;28;20253;-72
2023/10/02 03:24:46;;;;;;;13.13;12.10;;;;;;;19.44;69.18;99879.16;5091819;28;20470;-72
2023/10/02 03:27:14;;;;;;;14.30;12.20;;;;;;;19.40;69.51;99880.69;5091505;28;20313;-71
2023/10/02 03:29:43;;;;;;;12.50;11.53;;;;;;;19.33;69.57;99894.31;5079939;28;20195;-71
2023/10/02 03:32:11;;;;;;;13.50;12.20;;;;;;;19.43;69.17;99890.97;5072168;28;20223;-71
2023/10/02 03:34:38;;;;;;;12.50;11.40;;;;;;;19.46;69.11;99885.94;5071412;28;20196;-71
2023/10/02 03:37:15;;;;;;;14.40;11.60;;;;;;;19.45;68.82;99891.56;5071384;28;20260;-71
2023/10/02 03:42:36;;;;;;;12.17;11.03;;;;;;;19.34;69.08;99898.66;5050213;28;20226;-73
2023/10/02 03:45:04;;;;;;;12.53;11.53;;;;;;;19.36;68.98;99893.03;5071492;28;20279;-72
2023/10/02 03:47:33;;;;;;;16.40;12.30;;;;;;;19.29;69.26;99908.50;5070597;28;20226;-72
2023/10/02 03:50:05;;;;;;;13.27;10.90;;;;;;;19.33;68.74;99906.97;5070435;28;20188;-72
2023/10/02 03:52:34;;;;;;;11.67;10.47;;;;;;;19.25;69.22;99893.91;5071164;28;20176;-72
2023/10/02 03:55:14;;;;;;;14.60;11.23;;;;;;;19.26;68.81;99890.13;5070570;28;20199;-73
2023/10/02 03:57:49;;;;;;;12.50;11.40;;;;;;;19.29;68.74;99897.75;5069944;28;20647;-72
2023/10/02 04:00:22;;;;;;;10.87;10.07;;;;;;;19.13;69.27;99906.56;5071656;28;20210;-72
2023/10/02 04:02:50;;;;;;;11.37;10.33;;;;;;;19.09;69.41;99905.41;5071099;28;20184;-73
2023/10/02 04:05:32;;;;;;;10.97;9.80;;;;;;;19.10;69.12;99912.44;5070622;28;20662;-72
2023/10/02 04:08:21;;;;;;;13.87;10.00;;;;;;;19.07;69.10;99912.94;5070714;28;20673;-71
2023/10/02 04:11:03;;;;;;;15.20;10.70;;;;;;;18.99;68.98;99916.00;5070883;28;20223;-70
2023/10/02 04:13:33;;;;;;;10.67;9.77;;;;;;;18.97;69.06;99918.09;5071050;28;20180;-71
2023/10/02 04:18:49;;;;;;;13.90;10.17;;;;;;;19.01;68.65;99905.78;5070357;28;20202;-72
2023/10/02 04:21:22;;;;;;;13.20;10.17;;;;;;;18.90;69.15;99918.25;5089494;28;20658;-73
2023/10/02 04:23:52;;;;;;;12.77;9.70;;;;;;;18.91;68.94;99906.41;5091120;28;20200;-72
2023/10/02 04:26:20;;;;;;;13.57;10.37;;;;;;;18.88;68.90;99919.53;5081199;28;20908;-72
2023/10/02 04:28:54;;;;;;;11.40;9.33;;;;;;;18.95;68.46;99923.72;5068518;28;20282;-72
2023/10/02 04:31:23;;;;;;;11.17;9.90;;;;;;;18.89;68.74;99926.56;5070738;28;20215;-72
2023/10/02 04:34:14;;;;;;;10.67;9.77;;;;;;;18.95;68.58;99921.03;5070325;28;20572;-72
2023/10/02 04:36:41;;;;;;;11.93;9.80;;;;;;;18.89;68.43;99924.69;5070010;28;20643;-72
2023/10/02 04:39:27;;;;;;;12.60;9.60;;;;;;;18.96;68.05;99932.63;5070275;28;20198;-71
2023/10/02 04:42:09;;;;;;;9.60;8.67;;;;;;;18.92;68.08;99928.78;5069871;28;20186;-70
2023/10/02 04:44:44;;;;;;;11.00;9.77;;;;;;;18.93;68.27;99933.09;5069812;28;20186;-71
2023/10/02 04:47:17;;;;;;;11.00;9.10;;;;;;;19.02;67.91;99937.03;5069767;28;20252;-72
2023/10/02 04:50:34;;;;;;;9.80;8.60;;;;;;;18.98;67.78;99942.09;5069528;28;20561;-64
2023/10/02 04:52:53;;;;;;;13.77;8.97;;;;;;;19.20;67.36;99945.75;5069060;28;20284;-65
2023/10/02 04:55:24;;;;;;;10.13;9.23;;;;;;;19.26;66.93;99942.16;5070353;28;20196;-65
2023/10/02 04:57:52;;;;;;;12.47;9.13;;;;;;;19.49;66.12;99943.91;5070128;28;20194;-66
2023/10/02 05:00:32;;;;;;;11.17;9.60;;;;;;;19.80;64.56;99946.88;5066707;28;20199;-68
2023/10/02 05:03:09;;;;;;;9.97;8.50;;;;;;;20.00;63.42;99952.59;5067275;28;20189;-68
2023/10/02 05:05:42;;;;;;;12.20;8.03;;;;;;;20.03;63.09;99935.09;5068257;28;20199;-68
2023/10/02 05:08:18;;;;;;;10.00;8.17;;;;;;;20.47;61.81;99961.97;5066200;28;20675;-68
2023/10/02 05:10:49;;;;;;;12.43;8.20;;;;;;;20.67;60.66;99970.34;5066476;28;20192;-67
2023/10/02 05:13:44;;;;;;;9.87;8.10;;;;;;;20.91;59.96;99976.38;5067301;28;20275;-68
2023/10/02 05:16:12;;;;;;;10.53;7.43;;;;;;;21.10;58.78;99979.59;5068457;28;20207;-67
2023/10/02 05:18:47;;;;;;;14.13;7.37;;;;;;;20.99;59.16;99973.22;5068424;28;20262;-66
2023/10/02 05:21:16;;;;;;;8.43;7.10;;;;;;;21.22;58.21;99983.78;5087710;28;20183;-67
2023/10/02 05:23:56;;;;;;;15.53;7.67;;;;;;;21.38;57.79;99988.28;5090656;28;20581;-67
2023/10/02 05:26:32;;;;;;;15.67;7.97;;;;;;;21.55;56.60;99993.63;5092581;28;20202;-68
2023/10/02 05:28:59;;;;;;;10.27;7.00;;;;;;;21.65;56.35;99999.94;5086323;28;20203;-68
2023/10/02 05:31:27;;;;;;;11.60;8.07;;;;;;;21.71;56.20;100003.50;5068108;28;20204;-68
2023/10/02 05:33:57;;;;;;;13.20;7.30;;;;;;;21.59;56.40;100016.34;5068258;28;20196;-67
2023/10/02 05:36:24;;;;;;;15.20;8.07;;;;;;;21.71;56.20;100015.16;5067532;28;20222;-71
2023/10/02 05:41:41;;;;;;;7.97;7.17;;;;;;;22.21;53.78;100021.03;5068822;28;20342;-67
2023/10/02 05:44:12;;;;;;;12.23;7.13;;;;;;;22.03;54.26;100016.00;5067652;28;20267;-66
2023/10/02 05:46:55;;;;;;;9.60;6.93;;;;;;;22.01;55.27;100020.03;5068491;28;20257;-65
2023/10/02 05:49:23;;;;;;;9.03;6.80;;;;;;;22.11;55.44;100030.94;5069280;28;20601;-66
2023/10/02 05:51:55;;;;;;;7.17;6.47;;;;;;;22.12;53.28;100032.56;5069512;28;20235;-65
2023/10/02 05:54:26;;;;;;;7.73;6.80;;;;;;;22.25;52.76;100032.97;5069064;28;20737;-68
2023/10/02 05:57:08;;;;;;;13.73;5.90;;;;;;;22.29;50.92;100036.00;5070078;28;20239;-67
2023/10/02 05:59:43;;;;;;;7.03;6.50;;;;;;;22.53;51.04;100040.78;5069387;28;20278;-67
2023/10/02 06:02:12;;;;;;;10.67;6.10;;;;;;;22.71;50.38;100051.19;5066832;28;20188;-68
2023/10/02 06:04:43;;;;;;;17.37;6.83;;;;;;;22.60;49.61;100044.09;5068360;28;20279;-68
2023/10/02 06:07:11;;;;;;;7.27;6.17;;;;;;;22.75;53.51;100038.75;5067454;28;20197;-70
2023/10/02 06:09:44;;;;;;;9.17;6.13;;;;;;;22.88;49.45;100054.56;5066979;28;20204;-68
2023/10/02 06:12:12;;;;;;;7.20;6.33;;;;;;;22.99;48.44;100050.03;5067815;28;20268;-68
2023/10/02 06:14:39;;;;;;;6.90;6.13;;;;;;;23.44;48.55;100053.78;5068696;28;20196;-68
2023/10/02 06:17:11;;;;;;;10.67;6.60;;;;;;;23.85;47.93;100050.09;5067539;28;20237;-67
2023/10/02 06:19:44;;;;;;;6.67;6.03;;;;;;;23.95;46.52;100052.88;5063099;28;20372;-66
2023/10/02 06:22:13;;;;;;;7.03;6.33;;;;;;;24.15;47.18;100058.31;5068751;28;20649;-66
2023/10/02 06:24:40;;;;;;;13.57;6.13;;;;;;;24.80;43.71;100055.56;5068029;28;20207;-66
2023/10/02 06:27:13;;;;;;;7.10;5.93;;;;;;;25.17;42.24;100062.53;5069510;28;20231;-66
2023/10/02 06:29:44;;;;;;;8.30;5.70;;;;;;;25.06;42.84;100063.69;5060013;28;20303;-65
2023/10/02 06:32:14;;;;;;;13.20;6.20;;;;;;;24.85;42.14;100066.47;5075037;28;20194;-66
2023/10/02 06:34:44;;;;;;;6.40;6.00;;;;;;;24.93;43.58;100062.34;5075488;28;20187;-69
2023/10/02 06:37:13;;;;;;;9.17;5.50;;;;;;;24.61;43.03;100070.00;5074789;28;20219;-69
2023/10/02 06:39:41;;;;;;;6.90;6.23;;;;;;;24.55;42.33;100079.22;5070212;28;20221;-65
2023/10/02 06:42:09;;;;;;;12.77;5.93;;;;;;;24.72;42.30;100067.03;5057864;28;20340;-68
2023/10/02 06:44:41;;;;;;;9.97;5.90;;;;;;;25.20;41.38;100086.47;5067857;28;20187;-67
2023/10/02 06:47:11;;;;;;;7.17;5.70;;;;;;;25.16;40.08;100078.06;5070729;28;20273;-65
2023/10/02 06:49:40;;;;;;;9.07;5.37;;;;;;;24.87;39.20;100068.91;5068424;28;20609;-66
2023/10/02 06:52:16;;;;;;;11.23;5.43;;;;;;;24.61;40.32;100073.56;5069939;28;20199;-64
2023/10/02 06:54:44;;;;;;;9.70;5.63;;;;;;;25.04;40.55;100078.34;5069871;28;20179;-65
2023/10/02 06:57:13;;;;;;;16.30;6.03;;;;;;;24.87;39.99;100071.63;5069429;28;20218;-66
2023/10/02 06:59:41;;;;;;;7.57;5.60;;;;;;;24.78;39.79;100060.47;5068358;28;20215;-67
2023/10/02 07:02:09;;;;;;;44.07;7.43;;;;;;;25.33;38.99;100072.31;5070314;28;20192;-66
2023/10/02 07:04:37;;;;;;;8.80;5.83;;;;;;;25.81;38.21;100077.00;5066984;28;20200;-66
2023/10/02 07:07:04;;;;;;;10.63;5.33;;;;;;;25.42;38.50;100076.91;5067081;28;20224;-66
2023/10/02 07:09:35;;;;;;;9.60;5.80;;;;;;;25.32;38.27;100073.41;5066003;28;20249;-66
2023/10/02 07:12:13;;;;;;;6.63;6.03;;;;;;;25.32;38.23;100071.53;5065802;28;20218;-67
2023/10/02 07:14:42;;;;;;;12.30;5.43;;;;;;;25.55;37.31;100081.75;5066897;28;20203;-67
2023/10/02 07:17:16;;;;;;;13.73;5.63;;;;;;;25.51;38.34;100077.94;5066634;28;20223;-66
2023/10/02 07:19:50;;;;;;;20.30;5.87;;;;;;;25.42;36.89;100073.34;5066998;28;20239;-67
2023/10/02 07:22:18;;;;;;;14.53;5.50;;;;;;;25.43;38.07;100083.19;5047822;28;20181;-67
2023/10/02 07:24:47;;;;;;;17.20;5.80;;;;;;;25.45;36.60;100080.97;5061904;28;20795;-68
2023/10/02 07:27:26;;;;;;;9.87;5.40;;;;;;;25.82;35.95;100073.16;5069030;28;20224;-64
2023/10/02 07:29:55;;;;;;;10.10;5.10;;;;;;;25.65;36.11;100078.16;5068031;28;20227;-64
2023/10/02 07:32:22;;;;;;;14.70;4.47;;;;;;;25.75;35.92;100083.53;5068690;28;20261;-63
2023/10/02 07:34:51;;;;;;;10.93;5.33;;;;;;;25.95;35.36;100070.66;5068911;28;20196;-65
2023/10/02 07:37:22;;;;;;;13.37;5.43;;;;;;;25.74;35.58;100081.91;5068930;28;20287;-65
2023/10/02 07:39:56;;;;;;;7.93;4.80;;;;;;;25.59;35.74;100082.81;5068556;28;20257;-65
2023/10/02 07:42:24;;;;;;;7.70;4.67;;;;;;;25.47;35.11;100079.59;5068209;28;20194;-64
2023/10/02 07:44:52;;;;;;;12.70;5.97;;;;;;;25.36;35.12;100067.16;5068753;28;20192;-67
2023/10/02 07:47:20;;;;;;;8.77;4.77;;;;;;;25.38;34.93;100077.72;5067723;28;20250;-63
2023/10/02 07:49:51;;;;;;;11.00;4.60;;;;;;;25.24;35.62;100080.22;5067610;28;20188;-66
2023/10/02 07:52:29;;;;;;;5.23;4.73;;;;;;;25.43;35.22;100077.72;5067731;28;20509;-64
2023/10/02 07:54:59;;;;;;;8.03;5.47;;;;;;;25.54;35.46;100080.13;5068453;28;20184;-67
2023/10/02 07:57:30;;;;;;;7.90;4.63;;;;;;;26.26;35.51;100082.16;5068614;28;20204;-65
2023/10/02 07:59:58;;;;;;;11.50;4.80;;;;;;;26.61;34.01;100073.72;5068133;28;20669;-63
2023/10/02 08:02:30;;;;;;;16.23;6.10;;;;;;;27.18;33.78;100082.69;5068585;28;20218;-67
2023/10/02 08:04:59;;;;;;;14.50;5.63;;;;;;;27.37;32.20;100096.41;5067549;28;20213;-66
2023/10/02 08:07:26;;;;;;;6.93;5.13;;;;;;;27.41;32.93;100083.81;5067876;28;20320;-64
2023/10/02 08:09:55;;;;;;;10.03;5.87;;;;;;;27.48;32.08;100089.72;5067167;28;20196;-63
2023/10/02 08:15:26;;;;;;;7.97;5.17;;;;;;;27.74;31.97;100088.28;5066004;28;20858;-65
2023/10/02 08:18:11;;;;;;;14.37;5.63;;;;;;;27.73;31.30;100092.13;5064680;28;20282;-63
2023/10/02 08:20:38;;;;;;;19.23;6.13;;;;;;;27.71;31.64;100088.84;5067749;28;20425;-63
2023/10/02 08:23:21;;;;;;;11.20;5.93;;;;;;;28.04;30.71;100090.59;5065446;28;20196;-70
2023/10/02 08:26:00;;;;;;;9.37;5.70;;;;;;;27.79;30.71;100091.75;5067937;28;20211;-64
2023/10/02 08:28:30;;;;;;;9.30;5.50;;;;;;;27.60;30.91;100081.94;5068537;28;20215;-63
2023/10/02 08:31:01;;;;;;;10.23;5.40;;;;;;;27.60;31.15;100087.38;5068292;28;20223;-65
2023/10/02 08:33:30;;;;;;;12.33;5.27;;;;;;;27.02;31.14;100091.28;5068648;28;20204;-65
2023/10/02 08:35:58;;;;;;;9.27;5.63;;;;;;;26.92;31.63;100072.31;5067675;28;20226;-65
2023/10/02 08:38:26;;;;;;;9.23;5.07;;;;;;;27.28;32.36;100074.38;5067865;28;20666;-64
2023/10/02 08:40:58;;;;;;;9.63;5.40;;;;;;;27.85;31.10;100081.63;5067679;28;20188;-65
2023/10/02 08:43:25;;;;;;;13.33;6.53;;;;;;;27.16;31.20;100070.44;5066755;28;20273;-65
2023/10/02 08:45:53;;;;;;;12.40;5.30;;;;;;;26.82;31.72;100072.44;5067914;28;20196;-65
2023/10/02 08:48:22;;;;;;;7.23;5.47;;;;;;;26.91;31.90;100062.53;5067611;28;20310;-65
2023/10/02 08:50:49;;;;;;;8.67;5.70;;;;;;;26.92;31.93;100064.16;5066818;28;20203;-65
2023/10/02 08:53:20;;;;;;;10.30;4.87;;;;;;;27.11;31.60;100063.09;5067765;28;20195;-66
2023/10/02 08:55:54;;;;;;;10.43;5.47;;;;;;;27.27;31.59;100061.84;5067229;28;20194;-65
2023/10/02 08:58:22;;;;;;;9.33;5.27;;;;;;;27.42;30.91;100063.59;5070367;28;20878;-65
2023/10/02 09:01:06;;;;;;;9.30;5.83;;;;;;;27.45;30.96;100057.56;5071749;28;20261;-65
2023/10/02 09:03:41;;;;;;;19.13;6.27;;;;;;;27.23;31.14;100049.09;5071401;28;20184;-65
2023/10/02 09:11:34;;;;;;;14.97;6.30;;;;;;;27.87;30.82;100063.81;5068982;28;20223;-70
2023/10/02 09:14:16;;;;;;;7.40;6.17;;;;;;;27.76;29.88;100053.31;5069335;28;20265;-64
2023/10/02 09:16:46;;;;;;;10.97;6.20;;;;;;;27.79;30.43;100052.69;5071167;28;20569;-69
2023/10/02 09:19:31;;;;;;;6.63;6.00;;;;;;;27.59;30.19;100051.06;5061706;28;20700;-66
2023/10/02 09:22:06;;;;;;;6.47;5.87;;;;;;;27.99;30.18;100052.44;5060388;28;20262;-68
2023/10/02 09:24:35;;;;;;;7.10;5.30;;;;;;;28.29;30.11;100051.94;5061519;28;20191;-67
2023/10/02 09:29:45;;;;;;;6.60;5.70;;;;;;;28.37;29.24;100037.59;5070623;28;20571;-66
2023/10/02 09:32:25;;;;;;;11.93;6.33;;;;;;;28.42;29.67;100045.78;5071359;28;20279;-71
2023/10/02 09:37:36;;;;;;;7.27;6.10;;;;;;;28.84;28.64;100053.75;5064423;28;20199;-66
2023/10/02 09:40:14;;;;;;;7.87;6.30;;;;;;;28.87;29.04;100037.53;5057687;28;20228;-67
2023/10/02 09:42:45;;;;;;;11.20;6.17;;;;;;;28.99;28.31;100051.56;5068564;28;20200;-66
2023/10/02 09:45:16;;;;;;;15.67;6.20;;;;;;;28.60;28.85;100047.63;5068328;28;20230;-65
2023/10/02 09:47:44;;;;;;;7.47;5.80;;;;;;;28.50;28.85;100048.63;5064655;28;21012;-64
2023/10/02 09:50:23;;;;;;;13.33;6.97;;;;;;;28.20;29.24;100048.28;5068288;28;20208;-67
2023/10/02 09:52:59;;;;;;;8.27;6.00;;;;;;;28.02;29.16;100030.78;5070046;28;20978;-66
2023/10/02 09:55:47;;;;;;;12.30;6.13;;;;;;;27.92;29.63;100030.13;5069819;28;20278;-67
2023/10/02 09:58:27;;;;;;;11.83;6.40;;;;;;;27.93;29.55;100034.53;5070030;28;20184;-65
2023/10/02 10:01:29;;;;;;;7.50;5.83;;;;;;;28.04;29.27;100033.22;5069016;28;20188;-66
2023/10/02 10:03:56;;;;;;;16.27;6.80;;;;;;;28.27;29.14;100035.88;5050197;28;20188;-65
2023/10/02 10:06:28;;;;;;;14.17;6.43;;;;;;;28.18;28.90;100023.19;5050340;28;20258;-65
2023/10/02 10:09:25;;;;;;;6.40;5.80;;;;;;;27.86;29.19;100020.41;5051307;28;20209;-66
2023/10/02 10:14:36;;;;;;;11.43;7.13;;;;;;;27.79;29.39;100019.94;5070218;28;20854;-65
2023/10/02 10:17:03;;;;;;;8.03;6.23;;;;;;;27.93;28.93;100015.41;5071185;28;20188;-66
2023/10/02 10:19:34;;;;;;;11.00;6.67;;;;;;;27.94;29.02;100006.09;5069793;28;20695;-64
2023/10/02 10:22:10;;;;;;;9.10;5.53;;;;;;;27.95;29.15;100007.72;5070178;28;20185;-63
2023/10/02 10:24:51;;;;;;;7.90;6.33;;;;;;;28.09;29.25;100008.59;5069925;28;20219;-67
2023/10/02 10:27:54;;;;;;;6.20;5.60;;;;;;;28.29;28.99;100005.50;5070543;28;20666;-65
2023/10/02 10:30:44;;;;;;;16.27;5.90;;;;;;;28.37;28.91;99999.34;5060749;28;20203;-69
2023/10/02 10:33:45;;;;;;;9.40;6.00;;;;;;;28.29;28.54;99995.38;5053098;28;20193;-69
2023/10/02 10:36:38;;;;;;;11.30;6.33;;;;;;;28.03;28.51;99993.38;5038827;28;20210;-68
2023/10/02 10:39:34;;;;;;;7.80;6.40;;;;;;;28.12;28.65;99986.13;5056204;28;20257;-66
2023/10/02 10:42:02;;;;;;;7.00;6.30;;;;;;;28.30;28.51;99983.34;5049819;28;20285;-68
2023/10/02 10:44:37;;;;;;;7.43;6.50;;;;;;;28.33;28.03;99979.19;5066247;28;20196;-65
2023/10/02 10:47:03;;;;;;;22.17;6.60;;;;;;;27.97;27.93;99978.19;5064060;28;20198;-67
2023/10/02 10:49:53;;;;;;;12.37;6.47;;;;;;;28.02;28.37;99980.84;5052431;28;20251;-70
2023/10/02 10:52:34;;;;;;;8.30;5.83;;;;;;;28.33;28.05;99981.91;5050286;28;20284;-67
2023/10/02 10:55:04;;;;;;;9.03;6.37;;;;;;;28.50;27.82;99979.47;5047741;28;20634;-65
2023/10/02 10:57:49;;;;;;;9.97;6.43;;;;;;;28.62;27.43;99968.84;5050000;28;20196;-66
2023/10/02 11:00:24;;;;;;;14.67;6.50;;;;;;;28.41;27.63;99967.59;5049767;28;20187;-66
2023/10/02 11:02:57;;;;;;;9.17;5.73;;;;;;;28.28;27.37;99971.09;5049367;28;20234;-68
2023/10/02 11:05:24;;;;;;;25.03;7.20;;;;;;;28.31;26.87;99963.13;5050076;28;20221;-66
2023/10/02 11:07:57;;;;;;;18.60;6.97;;;;;;;28.23;27.16;99955.59;5050136;28;20307;-66
2023/10/02 11:10:27;;;;;;;6.53;5.87;;;;;;;28.04;27.14;99954.00;5052490;28;20614;-62
2023/10/02 11:12:57;;;;;;;11.73;6.50;;;;;;;28.03;27.51;99955.13;5069867;28;20795;-63
2023/10/02 11:18:26;;;;;;;7.33;6.50;;;;;;;27.99;27.64;99954.94;5106124;27;20545;-61
2023/10/02 11:20:54;;;;;;;9.17;6.20;;;;;;;28.04;27.46;99954.00;5100868;28;20214;-62
2023/10/02 11:23:37;;;;;;;6.47;5.87;;;;;;;28.07;27.33;99950.69;5094623;28;20175;-62
2023/10/02 11:26:10;;;;;;;8.23;6.10;;;;;;;28.04;27.77;99948.53;5085259;28;20322;-61
2023/10/02 11:28:37;;;;;;;9.70;7.07;;;;;;;28.42;27.29;99947.38;5085378;28;20224;-62
2023/10/02 11:31:29;;;;;;;11.33;6.27;;;;;;;28.31;26.32;99949.44;5089763;28;20183;-63
2023/10/02 11:34:00;;;;;;;8.47;5.83;;;;;;;28.38;25.90;99943.59;5105827;28;20292;-63
2023/10/02 11:36:28;;;;;;;11.33;6.53;;;;;;;28.40;26.12;99933.16;5105980;28;20903;-62
2023/10/02 11:38:56;;;;;;;10.67;6.10;;;;;;;28.42;25.65;99941.91;5106111;28;20191;-62
2023/10/02 11:41:22;;;;;;;7.27;6.57;;;;;;;28.63;24.92;99932.19;5105016;28;20821;-62
2023/10/02 11:43:49;;;;;;;7.97;5.83;;;;;;;28.55;25.65;99935.63;5104739;28;20567;-62
2023/10/02 11:46:16;;;;;;;10.33;6.10;;;;;;;28.46;24.76;99937.44;5106054;28;20561;-63
2023/10/02 11:48:44;;;;;;;6.43;5.77;;;;;;;28.20;24.78;99928.03;5093466;28;20199;-62
2023/10/02 11:51:12;;;;;;;9.23;6.30;;;;;;;28.16;25.95;99927.03;5085309;28;20219;-63
2023/10/02 11:53:39;;;;;;;6.33;5.73;;;;;;;28.39;26.95;99939.72;5084814;28;20202;-62
2023/10/02 11:56:05;;;;;;;7.93;5.83;;;;;;;28.51;25.70;99929.94;5065087;28;20269;-62
2023/10/02 11:58:32;;;;;;;10.63;6.97;;;;;;;28.58;25.03;99935.03;5063667;28;20188;-64
2023/10/02 12:00:59;;;;;;;8.67;6.30;;;;;;;28.55;23.92;99946.56;5064642;28;20633;-64
2023/10/02 12:03:25;;;;;;;7.60;6.00;;;;;;;28.44;24.22;99934.19;5064357;28;20196;-65
2023/10/02 12:05:53;;;;;;;10.30;6.80;;;;;;;28.58;24.46;99935.03;5064560;28;20184;-64
2023/10/02 12:08:22;;;;;;;11.90;6.20;;;;;;;28.65;23.73;99935.41;5064695;28;20222;-64
2023/10/02 12:10:54;;;;;;;6.07;5.40;;;;;;;28.45;23.73;99941.28;5069938;28;20195;-65
2023/10/02 12:13:21;;;;;;;8.53;5.87;;;;;;;28.30;23.55;99938.81;5085125;28;20237;-65
2023/10/02 12:15:49;;;;;;;10.53;6.20;;;;;;;28.29;23.69;99939.91;5083191;28;20219;-64